Time;durP1;ratioP1;P1;durP2;ratioP2;P2;SDS_P1;SDS_P2;PMS_P1;PMS_P2;Temp;Humidity;BMP_temperature;BMP_pressure;BME280_temperature;BME280_humidity;BME280_pressure;Samples;Min_cycle;Max_cycle;Signal;HPM_P1;HPM_P2
2022/05/16 00:00:57;;;;;;;10.07;2.83;;;12.20;99.90;;;;;;5100101;28;20023;-82
2022/05/16 00:03:24;;;;;;;7.50;1.83;;;12.20;99.90;;;;;;5120569;27;20027;-81
2022/05/16 00:05:50;;;;;;;7.28;2.47;;;12.20;99.90;;;;;;5113954;28;20023;-82
2022/05/16 00:08:15;;;;;;;7.40;2.35;;;12.20;99.90;;;;;;5115043;28;20522;-82
2022/05/16 00:10:41;;;;;;;6.55;2.58;;;12.10;99.90;;;;;;5115285;28;20077;-82
2022/05/16 00:13:09;;;;;;;8.18;2.28;;;12.10;99.90;;;;;;5102983;27;20411;-81
2022/05/16 00:15:35;;;;;;;9.60;3.13;;;12.10;99.90;;;;;;5095134;28;20028;-82
2022/05/16 00:18:07;;;;;;;7.18;2.72;;;12.00;99.90;;;;;;5122567;27;20153;-82
2022/05/16 00:20:33;;;;;;;11.02;3.30;;;12.00;99.90;;;;;;5114156;28;20024;-82
2022/05/16 00:22:59;;;;;;;9.60;2.35;;;11.90;99.90;;;;;;5112377;27;20023;-81
2022/05/16 00:25:24;;;;;;;10.80;2.92;;;11.90;99.90;;;;;;5112741;28;20085;-81
2022/05/16 00:27:50;;;;;;;8.60;3.30;;;11.90;99.90;;;;;;5102081;28;20028;-81
2022/05/16 00:30:18;;;;;;;8.02;2.60;;;11.80;99.90;;;;;;5114975;27;20147;-81
2022/05/16 00:32:48;;;;;;;9.20;3.25;;;11.80;99.90;;;;;;5115256;27;20024;-81
2022/05/16 00:35:16;;;;;;;6.70;2.88;;;11.80;99.90;;;;;;5111844;27;20036;-82
2022/05/16 00:37:42;;;;;;;10.00;3.13;;;11.70;99.90;;;;;;5115076;28;20098;-82
2022/05/16 00:40:09;;;;;;;4.78;2.28;;;11.70;99.90;;;;;;5113353;28;20035;-82
2022/05/16 00:42:38;;;;;;;7.18;2.92;;;11.60;99.90;;;;;;5096273;28;20125;-82
2022/05/16 00:45:06;;;;;;;18.60;2.85;;;11.60;99.90;;;;;;5132656;27;20082;-81
2022/05/16 00:47:33;;;;;;;10.02;2.78;;;11.60;99.90;;;;;;5135322;27;20027;-82
2022/05/16 00:50:01;;;;;;;7.57;2.78;;;11.50;99.90;;;;;;5100919;27;20521;-82
2022/05/16 00:52:35;;;;;;;6.40;2.60;;;11.50;99.90;;;;;;5117074;27;20033;-82
2022/05/16 00:55:09;;;;;;;12.43;3.35;;;11.50;99.90;;;;;;5113278;27;20055;-82
2022/05/16 00:57:39;;;;;;;6.80;2.70;;;11.50;99.90;;;;;;5121809;27;20039;-82
2022/05/16 01:00:07;;;;;;;12.07;3.00;;;11.50;99.90;;;;;;5113337;28;20050;-82
2022/05/16 01:05:20;;;;;;;14.70;3.22;;;11.50;99.90;;;;;;5105888;28;20585;-82
2022/05/16 01:07:49;;;;;;;5.97;2.47;;;11.50;99.90;;;;;;5106018;28;20032;-81
2022/05/16 01:10:18;;;;;;;9.60;2.35;;;11.40;99.90;;;;;;5114781;28;20034;-82
2022/05/16 01:12:48;;;;;;;9.15;2.65;;;11.40;99.90;;;;;;5109469;28;20379;-82
2022/05/16 01:15:16;;;;;;;13.93;3.55;;;11.30;99.90;;;;;;5110798;28;20337;-82
2022/05/16 01:17:48;;;;;;;8.02;2.35;;;11.30;99.90;;;;;;5113587;28;20055;-82
2022/05/16 01:20:14;;;;;;;10.35;3.65;;;11.30;99.90;;;;;;5113607;28;20028;-82
2022/05/16 01:22:43;;;;;;;8.32;2.80;;;11.30;99.90;;;;;;5101837;28;20027;-81
2022/05/16 01:25:18;;;;;;;14.07;2.88;;;11.30;99.90;;;;;;5114048;27;20024;-82
2022/05/16 01:27:51;;;;;;;14.13;3.10;;;11.20;99.90;;;;;;5110467;28;20028;-81
2022/05/16 01:30:24;;;;;;;10.43;2.60;;;11.20;99.90;;;;;;5113499;27;20429;-82
2022/05/16 01:32:50;;;;;;;6.20;2.67;;;11.10;99.90;;;;;;5112823;27;20499;-82
2022/05/16 01:35:22;;;;;;;10.95;2.80;;;11.10;99.90;;;;;;5123660;27;20032;-82
2022/05/16 01:43:58;;;;;;;11.52;3.70;;;11.10;99.90;;;;;;5129533;27;20038;-82
2022/05/16 01:46:28;;;;;;;13.43;3.85;;;11.10;99.90;;;;;;5110477;28;20027;-81
2022/05/16 01:48:53;;;;;;;8.43;3.15;;;11.10;99.90;;;;;;5116230;27;20476;-81
2022/05/16 01:51:19;;;;;;;8.35;2.80;;;11.00;99.90;;;;;;5104260;28;20027;-81
2022/05/16 01:53:47;;;;;;;8.75;2.75;;;11.00;99.90;;;;;;5110809;28;20035;-82
2022/05/16 01:56:13;;;;;;;7.53;2.80;;;11.00;99.90;;;;;;5113409;28;20418;-82
2022/05/16 01:58:41;;;;;;;10.00;2.45;;;11.00;99.90;;;;;;5110000;28;20053;-81
2022/05/16 02:01:12;;;;;;;13.88;3.65;;;10.90;99.90;;;;;;5112834;28;20438;-82
2022/05/16 02:03:40;;;;;;;11.95;3.05;;;10.90;99.90;;;;;;5112880;28;20044;-81
2022/05/16 02:06:13;;;;;;;8.30;3.28;;;10.90;99.90;;;;;;5110926;28;20468;-82
2022/05/16 02:08:38;;;;;;;15.70;3.38;;;10.90;99.90;;;;;;5097185;28;20051;-82
2022/05/16 02:11:07;;;;;;;9.43;2.35;;;10.80;99.90;;;;;;5093088;28;20346;-82
2022/05/16 02:13:37;;;;;;;6.78;2.78;;;10.80;99.90;;;;;;5101455;28;20098;-81
2022/05/16 02:16:11;;;;;;;8.13;3.10;;;10.80;99.90;;;;;;5109246;28;20111;-81
2022/05/16 02:18:37;;;;;;;5.85;2.47;;;10.80;99.90;;;;;;5094907;28;20036;-82
2022/05/16 02:26:36;;;;;;;9.38;3.03;;;10.80;99.90;;;;;;5111961;28;20087;-81
2022/05/16 02:29:02;;;;;;;8.57;2.97;;;10.70;99.90;;;;;;5108267;28;20103;-81
2022/05/16 02:31:30;;;;;;;7.95;2.80;;;10.70;99.90;;;;;;5111071;28;20099;-81
2022/05/16 02:33:56;;;;;;;9.73;3.00;;;10.70;99.90;;;;;;5112168;28;20024;-82
2022/05/16 02:36:21;;;;;;;9.13;3.65;;;10.70;99.90;;;;;;5110639;28;20368;-81
2022/05/16 02:38:47;;;;;;;5.88;2.78;;;10.70;99.90;;;;;;5106763;28;20070;-82
2022/05/16 02:41:20;;;;;;;7.75;3.13;;;10.70;99.90;;;;;;5111491;28;20016;-81
2022/05/16 02:43:46;;;;;;;9.65;3.25;;;10.70;99.90;;;;;;5108885;28;20041;-81
2022/05/16 02:46:12;;;;;;;7.95;3.38;;;10.70;99.90;;;;;;5105397;28;20054;-81
2022/05/16 02:48:37;;;;;;;5.90;2.85;;;10.60;99.90;;;;;;5107819;28;21731;-82
2022/05/16 02:51:04;;;;;;;5.25;2.90;;;10.60;99.90;;;;;;5120775;28;20031;-81
2022/05/16 02:53:29;;;;;;;6.60;3.05;;;10.60;99.90;;;;;;5106000;28;20031;-81
2022/05/16 02:55:55;;;;;;;6.50;2.63;;;10.70;99.90;;;;;;5110658;28;20038;-81
2022/05/16 02:58:21;;;;;;;6.15;2.42;;;10.60;99.90;;;;;;5100951;28;20040;-82
2022/05/16 03:00:47;;;;;;;8.90;3.03;;;10.60;99.90;;;;;;5098208;28;20379;-81
2022/05/16 03:03:12;;;;;;;9.15;3.17;;;10.60;99.90;;;;;;5102204;28;20059;-81
2022/05/16 03:05:38;;;;;;;6.00;2.83;;;10.50;99.90;;;;;;5099614;28;20023;-81
2022/05/16 03:08:04;;;;;;;9.27;3.30;;;10.60;99.90;;;;;;5112748;28;20026;-81
2022/05/16 03:10:30;;;;;;;9.93;2.92;;;10.50;99.90;;;;;;5109119;27;20039;-81
2022/05/16 03:12:55;;;;;;;10.48;4.10;;;10.50;99.90;;;;;;5109367;28;20475;-81
2022/05/16 03:15:21;;;;;;;15.52;4.00;;;10.50;99.90;;;;;;5106608;27;20414;-81
2022/05/16 03:17:46;;;;;;;6.93;2.90;;;10.40;99.90;;;;;;5119862;27;20019;-81
2022/05/16 03:20:15;;;;;;;10.07;3.55;;;10.40;99.90;;;;;;5118747;27;20027;-81
2022/05/16 03:22:41;;;;;;;10.90;3.80;;;10.40;99.90;;;;;;5117915;27;20030;-81
2022/05/16 03:25:08;;;;;;;12.32;4.30;;;10.40;99.90;;;;;;5120692;27;20099;-81
2022/05/16 03:27:34;;;;;;;11.13;3.80;;;10.40;99.90;;;;;;5118108;27;20102;-81
2022/05/16 03:30:00;;;;;;;12.48;3.72;;;10.30;99.90;;;;;;5114829;27;20077;-81
2022/05/16 03:32:28;;;;;;;9.13;3.40;;;10.40;99.90;;;;;;5112285;27;20035;-81
2022/05/16 03:34:54;;;;;;;10.40;3.22;;;10.40;99.90;;;;;;5113836;27;20027;-81
2022/05/16 03:37:22;;;;;;;8.68;3.60;;;10.30;99.90;;;;;;5113730;28;20421;-81
2022/05/16 03:42:33;;;;;;;11.20;3.00;;;10.30;99.90;;;;;;5096716;27;20022;-81
2022/05/16 03:44:59;;;;;;;6.40;2.92;;;10.40;99.90;;;;;;5088945;28;20364;-81
2022/05/16 03:47:26;;;;;;;6.18;2.75;;;10.40;99.90;;;;;;5117056;27;20031;-81
2022/05/16 03:49:51;;;;;;;13.82;3.42;;;10.40;99.90;;;;;;5117342;27;20031;-81
2022/05/16 03:52:18;;;;;;;6.75;3.88;;;10.40;99.90;;;;;;5132401;27;20469;-81
2022/05/16 03:54:44;;;;;;;8.35;3.08;;;10.40;99.90;;;;;;5136244;27;20023;-81
2022/05/16 03:57:10;;;;;;;9.43;3.28;;;10.40;99.90;;;;;;5118398;27;20520;-81
2022/05/16 03:59:35;;;;;;;12.25;3.80;;;10.40;99.90;;;;;;5114792;28;20055;-81
2022/05/16 04:02:01;;;;;;;8.70;3.15;;;10.40;99.90;;;;;;5114822;28;20079;-81
2022/05/16 04:04:27;;;;;;;8.05;3.47;;;10.40;99.90;;;;;;5114662;28;20478;-81
2022/05/16 04:06:53;;;;;;;7.07;3.25;;;10.40;99.90;;;;;;5115449;27;20024;-81
2022/05/16 04:09:19;;;;;;;20.48;2.97;;;10.40;99.90;;;;;;5110074;27;20089;-81
2022/05/16 04:11:44;;;;;;;9.43;2.83;;;10.40;99.90;;;;;;5117967;27;20019;-81
2022/05/16 04:14:10;;;;;;;7.82;3.08;;;10.40;99.90;;;;;;5110859;28;20036;-81
2022/05/16 04:16:37;;;;;;;8.30;2.88;;;10.50;99.90;;;;;;5105956;27;20032;-81
2022/05/16 04:19:03;;;;;;;7.72;3.85;;;10.50;99.90;;;;;;5115877;27;20039;-81
2022/05/16 04:21:30;;;;;;;5.28;2.90;;;10.60;99.90;;;;;;5113891;28;20129;-81
2022/05/16 04:23:55;;;;;;;4.53;2.72;;;10.60;99.90;;;;;;5113695;28;20050;-81
2022/05/16 04:26:21;;;;;;;7.60;3.28;;;10.70;99.90;;;;;;5113610;27;20061;-81
2022/05/16 04:28:47;;;;;;;12.90;2.97;;;10.70;99.90;;;;;;5112389;27;20039;-81
2022/05/16 04:31:12;;;;;;;5.68;2.83;;;10.80;99.90;;;;;;5114126;28;20024;-81
2022/05/16 04:33:38;;;;;;;7.85;2.95;;;10.80;99.90;;;;;;5116911;27;20035;-82
2022/05/16 04:36:06;;;;;;;10.45;3.78;;;10.80;99.90;;;;;;5108348;27;20387;-81
2022/05/16 04:38:31;;;;;;;5.72;3.25;;;10.80;99.90;;;;;;5113521;28;20528;-80
2022/05/16 04:43:41;;;;;;;10.25;3.30;;;10.90;99.90;;;;;;5115755;27;20417;-81
2022/05/16 04:46:08;;;;;;;10.68;4.38;;;11.00;99.90;;;;;;5093853;28;20036;-81
2022/05/16 04:48:34;;;;;;;7.10;2.80;;;11.10;99.90;;;;;;5113878;27;20019;-83
2022/05/16 04:51:01;;;;;;;11.52;3.22;;;11.20;99.90;;;;;;5103706;27;20145;-82
2022/05/16 04:53:26;;;;;;;8.98;3.05;;;11.30;99.90;;;;;;5112249;28;20031;-82
2022/05/16 04:55:53;;;;;;;9.18;3.58;;;11.40;99.90;;;;;;5116036;27;20023;-81
2022/05/16 04:58:20;;;;;;;12.40;3.50;;;11.50;99.90;;;;;;5135096;27;20043;-82
2022/05/16 05:00:45;;;;;;;8.35;3.10;;;11.60;99.90;;;;;;5134816;27;20050;-82
2022/05/16 05:03:15;;;;;;;12.07;3.50;;;11.60;99.90;;;;;;5098725;27;20467;-82
2022/05/16 05:05:41;;;;;;;10.43;3.22;;;11.80;99.90;;;;;;5116428;27;20110;-82
2022/05/16 05:08:06;;;;;;;12.02;3.17;;;11.90;99.90;;;;;;5133593;27;20135;-82
2022/05/16 05:16:11;;;;;;;10.88;3.60;;;12.10;99.90;;;;;;5111043;27;20034;-82
2022/05/16 05:18:38;;;;;;;8.55;2.75;;;12.30;99.90;;;;;;5128004;27;20015;-82
2022/05/16 05:21:04;;;;;;;20.33;4.90;;;12.40;99.90;;;;;;5116486;27;20023;-82
2022/05/16 05:23:38;;;;;;;7.80;4.05;;;12.40;99.90;;;;;;5110205;28;20019;-82
2022/05/16 05:26:05;;;;;;;12.52;3.90;;;12.50;99.90;;;;;;5115147;27;20027;-82
2022/05/16 05:28:37;;;;;;;14.82;4.10;;;12.60;99.90;;;;;;5100088;27;20020;-82
2022/05/16 05:31:03;;;;;;;10.85;3.63;;;12.70;99.90;;;;;;5098667;27;20032;-82
2022/05/16 05:33:29;;;;;;;12.35;3.22;;;12.80;99.90;;;;;;5100012;27;20028;-82
2022/05/16 05:35:55;;;;;;;15.20;3.55;;;12.90;99.90;;;;;;5107039;27;20039;-82
2022/05/16 05:38:24;;;;;;;12.43;3.78;;;13.00;99.90;;;;;;5094325;28;20019;-82
2022/05/16 05:40:50;;;;;;;8.30;3.45;;;13.10;99.90;;;;;;5108603;28;20019;-81
2022/05/16 05:43:16;;;;;;;17.80;5.18;;;13.20;99.90;;;;;;5114456;27;20027;-81
2022/05/16 05:45:43;;;;;;;13.77;3.92;;;13.30;99.90;;;;;;5113502;27;20119;-81
2022/05/16 05:48:09;;;;;;;13.60;4.20;;;13.50;99.90;;;;;;5111938;27;20031;-81
2022/05/16 05:50:35;;;;;;;7.50;3.20;;;13.60;99.90;;;;;;5111729;27;20035;-81
2022/05/16 05:53:00;;;;;;;11.40;2.88;;;13.70;99.90;;;;;;5113683;27;20096;-81
2022/05/16 05:55:26;;;;;;;16.88;3.40;;;13.80;99.90;;;;;;5131999;27;20027;-82
2022/05/16 05:57:53;;;;;;;14.13;3.70;;;14.00;99.90;;;;;;5128754;27;20046;-82
2022/05/16 06:00:19;;;;;;;13.73;3.90;;;14.20;99.90;;;;;;5100732;27;20088;-82
2022/05/16 06:02:45;;;;;;;7.65;2.45;;;14.40;99.90;;;;;;5113224;27;20068;-83
2022/05/16 06:05:17;;;;;;;7.72;2.70;;;14.50;99.90;;;;;;5133137;27;20023;-83
2022/05/16 06:07:42;;;;;;;10.27;3.40;;;14.70;99.90;;;;;;5133641;27;20019;-83
2022/05/16 06:10:10;;;;;;;9.07;3.00;;;14.90;99.90;;;;;;5104218;27;20031;-83
2022/05/16 06:12:35;;;;;;;12.35;2.95;;;15.00;99.90;;;;;;5093639;28;20096;-83
2022/05/16 06:15:05;;;;;;;8.40;3.30;;;15.10;99.90;;;;;;5113128;28;20523;-83
2022/05/16 06:17:30;;;;;;;13.63;3.67;;;15.20;99.90;;;;;;5112776;28;20024;-83
2022/05/16 06:19:57;;;;;;;5.72;2.50;;;15.40;99.90;;;;;;5115758;27;20016;-83
2022/05/16 06:22:23;;;;;;;16.58;3.55;;;15.50;99.90;;;;;;5118201;27;20020;-83
2022/05/16 06:27:33;;;;;;;9.25;3.28;;;15.70;99.90;;;;;;5092951;28;20039;-82
2022/05/16 06:29:59;;;;;;;9.75;3.15;;;15.60;99.90;;;;;;5092806;28;20028;-81
2022/05/16 06:32:25;;;;;;;6.18;2.97;;;15.60;99.90;;;;;;5092840;28;20028;-82
2022/05/16 06:34:52;;;;;;;9.73;2.83;;;15.60;99.90;;;;;;5097595;28;20027;-81
2022/05/16 06:37:18;;;;;;;6.95;2.60;;;15.60;99.90;;;;;;5133498;28;20023;-82
2022/05/16 06:39:45;;;;;;;11.93;3.15;;;15.70;99.90;;;;;;5105961;28;20030;-81
2022/05/16 06:42:11;;;;;;;10.45;3.03;;;15.70;99.90;;;;;;5109630;27;20114;-82
2022/05/16 06:44:39;;;;;;;12.07;2.97;;;15.70;99.90;;;;;;5116913;27;20023;-82
2022/05/16 06:47:05;;;;;;;10.48;3.05;;;15.70;99.90;;;;;;5119866;27;20024;-81
2022/05/16 06:49:31;;;;;;;19.27;3.70;;;15.70;99.90;;;;;;5125896;27;20030;-82
2022/05/16 06:51:57;;;;;;;9.23;3.35;;;15.80;99.90;;;;;;5140498;27;20049;-81
2022/05/16 06:54:23;;;;;;;16.50;3.85;;;15.80;99.90;;;;;;5127683;27;20032;-82
2022/05/16 06:56:48;;;;;;;8.02;2.80;;;15.80;99.90;;;;;;5117589;27;20046;-82
2022/05/16 06:59:14;;;;;;;10.60;3.67;;;15.90;99.90;;;;;;5121846;27;20091;-82
2022/05/16 07:01:39;;;;;;;7.82;3.22;;;16.00;99.90;;;;;;5116625;27;20016;-82
2022/05/16 07:04:05;;;;;;;9.88;3.08;;;16.00;99.90;;;;;;5110389;27;20016;-83
2022/05/16 07:06:31;;;;;;;16.13;3.58;;;16.10;99.90;;;;;;5117747;27;20035;-81
2022/05/16 07:08:56;;;;;;;10.50;3.20;;;16.10;99.90;;;;;;5133937;27;20024;-82
2022/05/16 07:11:22;;;;;;;15.68;3.45;;;16.20;99.90;;;;;;5118799;27;20035;-83
2022/05/16 07:13:48;;;;;;;9.93;2.92;;;16.30;99.90;;;;;;5122652;27;20103;-83
2022/05/16 07:16:13;;;;;;;14.98;3.40;;;16.40;99.90;;;;;;5102120;27;20036;-82
2022/05/16 07:18:39;;;;;;;12.40;3.72;;;16.50;99.90;;;;;;5099044;28;20357;-82
2022/05/16 07:21:05;;;;;;;11.65;3.45;;;16.70;99.90;;;;;;5099108;28;20088;-83
2022/05/16 07:23:32;;;;;;;10.93;3.17;;;16.90;99.90;;;;;;5098758;28;20407;-82
2022/05/16 07:28:42;;;;;;;11.20;3.50;;;17.20;99.90;;;;;;5099187;28;20089;-82
2022/05/16 07:31:09;;;;;;;14.90;3.67;;;17.50;99.90;;;;;;5098682;28;20020;-82
2022/05/16 07:33:36;;;;;;;11.85;3.63;;;17.70;99.90;;;;;;5080864;28;20027;-83
2022/05/16 07:36:03;;;;;;;17.33;4.63;;;17.90;99.90;;;;;;5098716;28;20395;-82
2022/05/16 07:38:28;;;;;;;12.70;3.63;;;18.10;99.90;;;;;;5097530;28;20429;-82
2022/05/16 07:40:55;;;;;;;9.40;2.92;;;18.20;99.90;;;;;;5099020;28;20012;-83
2022/05/16 07:43:21;;;;;;;10.10;3.22;;;18.30;99.90;;;;;;5098754;28;20056;-82
2022/05/16 07:45:47;;;;;;;12.63;3.60;;;18.50;99.90;;;;;;5097409;28;20027;-82
2022/05/16 07:48:15;;;;;;;10.02;3.17;;;18.60;99.90;;;;;;5099043;28;20027;-83
2022/05/16 07:50:44;;;;;;;15.20;3.80;;;18.70;99.90;;;;;;5097047;28;20024;-82
2022/05/16 07:53:12;;;;;;;22.35;3.67;;;18.70;99.90;;;;;;5095470;28;20096;-83
2022/05/16 07:55:39;;;;;;;13.18;4.10;;;18.90;99.90;;;;;;5095765;28;20396;-83
2022/05/16 07:58:05;;;;;;;10.32;3.20;;;19.00;99.90;;;;;;5095252;28;20397;-82
2022/05/16 08:00:32;;;;;;;12.15;3.28;;;19.10;99.90;;;;;;5077108;28;20020;-82
2022/05/16 08:02:58;;;;;;;15.52;4.13;;;19.20;99.90;;;;;;5095544;28;20039;-82
2022/05/16 08:05:25;;;;;;;16.42;3.78;;;19.30;99.90;;;;;;5077325;28;20590;-82
2022/05/16 08:10:39;;;;;;;14.15;3.45;;;19.50;99.90;;;;;;5095672;28;20085;-82
2022/05/16 08:13:07;;;;;;;22.45;3.88;;;19.60;99.90;;;;;;5095337;28;20399;-82
2022/05/16 08:15:36;;;;;;;17.80;4.03;;;19.70;99.90;;;;;;5094920;28;20024;-82
2022/05/16 08:18:02;;;;;;;16.20;3.83;;;19.80;99.90;;;;;;5095075;28;20093;-82
2022/05/16 08:20:29;;;;;;;10.57;3.03;;;19.90;99.90;;;;;;5077511;28;20030;-82
2022/05/16 08:22:55;;;;;;;10.93;3.85;;;19.90;99.90;;;;;;5095156;28;20024;-83
2022/05/16 08:25:22;;;;;;;19.05;4.07;;;20.00;99.90;;;;;;5094983;28;20495;-83
2022/05/16 08:27:51;;;;;;;19.38;4.13;;;20.10;99.90;;;;;;5104741;27;20444;-82
2022/05/16 08:30:19;;;;;;;13.80;4.43;;;20.20;99.90;;;;;;5102031;27;20027;-83
2022/05/16 08:32:45;;;;;;;12.00;3.17;;;20.30;99.90;;;;;;5110599;28;20026;-82
2022/05/16 08:35:12;;;;;;;14.10;3.55;;;20.40;99.90;;;;;;5094967;28;20111;-82
2022/05/16 08:40:41;;;;;;;15.30;3.42;;;20.50;99.90;;;;;;5115154;28;20080;-82
2022/05/16 08:43:42;;;;;;;10.80;3.38;;;20.50;99.90;;;;;;5110081;27;20024;-83
2022/05/16 08:46:20;;;;;;;13.95;4.60;;;20.60;99.90;;;;;;5094941;28;20032;-83
2022/05/16 08:48:49;;;;;;;13.35;3.97;;;20.60;99.90;;;;;;5094852;28;20031;-83
2022/05/16 08:51:23;;;;;;;19.77;4.00;;;20.60;99.90;;;;;;5102765;27;20043;-83
2022/05/16 08:53:59;;;;;;;16.73;4.03;;;20.70;99.90;;;;;;5115210;28;20028;-82
2022/05/16 08:56:30;;;;;;;11.57;3.72;;;20.70;99.90;;;;;;5114868;28;20035;-84
2022/05/16 08:59:09;;;;;;;12.57;4.07;;;20.70;99.90;;;;;;5096278;28;20044;-82
2022/05/16 09:01:40;;;;;;;15.48;4.72;;;20.80;99.90;;;;;;5114453;28;20054;-82
2022/05/16 09:04:18;;;;;;;15.35;3.50;;;20.80;99.90;;;;;;5113192;28;20068;-82
2022/05/16 09:07:05;;;;;;;19.98;4.28;;;20.90;99.90;;;;;;5114816;28;20027;-83
2022/05/16 09:09:46;;;;;;;12.55;3.55;;;21.00;99.90;;;;;;5114666;28;20425;-82
2022/05/16 09:12:30;;;;;;;17.85;4.05;;;21.10;99.90;;;;;;5114524;28;20102;-82
2022/05/16 09:15:40;;;;;;;11.52;3.47;;;21.20;99.90;;;;;;5112507;28;20126;-82
2022/05/16 09:18:56;;;;;;;10.73;2.97;;;21.20;99.90;;;;;;5113860;28;20031;-83
2022/05/16 09:22:00;;;;;;;16.77;3.03;;;21.30;99.90;;;;;;5095946;28;20032;-82
2022/05/16 09:24:31;;;;;;;15.10;3.72;;;21.40;99.90;;;;;;5112933;28;20266;-82
2022/05/16 09:27:03;;;;;;;16.48;3.60;;;21.40;99.90;;;;;;5113022;28;20110;-82
2022/05/16 09:29:32;;;;;;;17.10;3.70;;;21.50;99.90;;;;;;5112746;28;20047;-83
2022/05/16 09:32:09;;;;;;;11.70;3.60;;;21.60;99.90;;;;;;5114538;27;20411;-83
2022/05/16 09:34:35;;;;;;;20.60;4.47;;;21.60;99.90;;;;;;5104904;28;20023;-83
2022/05/16 09:37:07;;;;;;;11.48;3.15;;;21.70;99.90;;;;;;5094966;28;20024;-83
2022/05/16 09:39:34;;;;;;;18.17;4.50;;;21.70;99.90;;;;;;5113039;27;20106;-84
2022/05/16 09:42:21;;;;;;;11.95;3.67;;;21.70;99.90;;;;;;5111745;27;20055;-82
2022/05/16 09:44:53;;;;;;;9.63;3.75;;;21.70;99.90;;;;;;5112291;28;20024;-82
2022/05/16 09:47:34;;;;;;;15.43;3.90;;;21.90;99.90;;;;;;5096072;27;20032;-83
2022/05/16 09:50:02;;;;;;;14.85;4.15;;;21.90;99.90;;;;;;5076425;28;20111;-82
2022/05/16 09:52:35;;;;;;;16.42;3.85;;;22.00;99.90;;;;;;5123429;27;20058;-83
2022/05/16 09:55:04;;;;;;;16.13;3.58;;;22.00;98.60;;;;;;5115306;27;20098;-82
2022/05/16 09:57:37;;;;;;;9.57;3.75;;;22.00;99.90;;;;;;5113031;28;20044;-82
2022/05/16 10:00:24;;;;;;;11.40;3.67;;;22.10;99.40;;;;;;5113583;28;20467;-82
2022/05/16 10:03:14;;;;;;;17.90;3.47;;;22.10;98.40;;;;;;5112417;28;20016;-82
2022/05/16 10:05:47;;;;;;;18.08;4.45;;;22.20;98.80;;;;;;5113647;28;20027;-82
2022/05/16 10:08:26;;;;;;;;;;;22.20;98.50;;;;;;5114746;28;20059;-82
2022/05/16 10:10:53;;;;;;;11.82;3.50;;;22.30;97.30;;;;;;5113567;28;19910;-82
2022/05/16 10:13:20;;;;;;;18.17;4.00;;;22.30;96.10;;;;;;5111997;28;20059;-82
2022/05/16 10:15:48;;;;;;;13.68;3.88;;;22.50;97.30;;;;;;5111369;28;20059;-81
2022/05/16 10:18:18;;;;;;;14.25;3.85;;;22.50;97.60;;;;;;5113358;28;20054;-83
2022/05/16 10:20:53;;;;;;;10.73;3.30;;;22.60;96.10;;;;;;5113339;28;20016;-82
2022/05/16 10:23:24;;;;;;;11.82;3.50;;;22.60;94.20;;;;;;5113078;28;20111;-82
2022/05/16 10:25:54;;;;;;;13.65;4.78;;;22.60;94.50;;;;;;5113413;28;20026;-82
2022/05/16 10:28:31;;;;;;;14.55;3.20;;;22.60;95.80;;;;;;5112059;28;20028;-82
2022/05/16 10:33:49;;;;;;;21.65;5.30;;;22.70;96.20;;;;;;5113299;28;20030;-82
2022/05/16 10:36:24;;;;;;;13.70;2.78;;;22.70;96.20;;;;;;5113336;28;20032;-82
2022/05/16 10:38:59;;;;;;;9.57;3.33;;;22.60;95.60;;;;;;5112186;28;20039;-82
2022/05/16 10:41:35;;;;;;;14.00;3.50;;;22.60;98.10;;;;;;5111925;28;20047;-82
2022/05/16 10:44:29;;;;;;;14.77;4.03;;;22.50;97.70;;;;;;5112206;28;20375;-82
2022/05/16 10:47:22;;;;;;;13.43;3.85;;;22.60;99.90;;;;;;5112194;28;20160;-82
2022/05/16 10:50:09;;;;;;;10.23;2.78;;;22.70;98.50;;;;;;5093427;28;20051;-83
2022/05/16 10:52:41;;;;;;;11.18;3.55;;;22.80;99.40;;;;;;5124086;28;20114;-82
2022/05/16 10:55:08;;;;;;;22.52;4.32;;;22.90;96.50;;;;;;5115111;28;20511;-82
2022/05/16 10:57:49;;;;;;;15.20;3.15;;;23.00;95.20;;;;;;5111899;28;20044;-82
2022/05/16 11:00:19;;;;;;;19.17;3.85;;;22.90;96.20;;;;;;5112609;28;20020;-82
2022/05/16 11:03:06;;;;;;;19.02;4.15;;;23.00;96.60;;;;;;5112863;28;20028;-82
2022/05/16 11:05:46;;;;;;;13.10;3.45;;;23.00;96.40;;;;;;5112971;28;20020;-83
2022/05/16 11:08:45;;;;;;;11.27;3.30;;;22.90;97.20;;;;;;5113048;28;20051;-82
2022/05/16 11:11:25;;;;;;;10.95;3.10;;;22.90;98.70;;;;;;5113158;28;20028;-82
2022/05/16 11:14:02;;;;;;;9.82;3.20;;;22.90;99.90;;;;;;5111480;28;20027;-82
2022/05/16 11:16:32;;;;;;;18.63;4.38;;;22.90;99.90;;;;;;5090881;28;20081;-82
2022/05/16 11:19:32;;;;;;;16.23;3.30;;;22.90;98.50;;;;;;5107805;28;20024;-82
2022/05/16 11:22:12;;;;;;;21.42;4.18;;;23.00;99.90;;;;;;5096553;28;20055;-82
2022/05/16 11:24:43;;;;;;;17.75;3.22;;;22.90;99.90;;;;;;5111213;28;20034;-82
2022/05/16 11:27:16;;;;;;;10.88;3.58;;;23.00;99.90;;;;;;5112907;28;20038;-83
2022/05/16 11:29:55;;;;;;;10.25;3.22;;;23.10;99.90;;;;;;5114449;28;20024;-81
2022/05/16 11:32:51;;;;;;;21.75;2.80;;;23.20;98.50;;;;;;5115628;28;20024;-82
2022/05/16 11:35:43;;;;;;;11.25;3.20;;;23.30;98.80;;;;;;5105878;28;20492;-84
2022/05/16 11:38:26;;;;;;;18.75;3.20;;;23.60;94.10;;;;;;5116825;28;20478;-83
2022/05/16 11:41:10;;;;;;;7.18;2.33;;;23.60;93.60;;;;;;5115147;28;20028;-84
2022/05/16 11:43:44;;;;;;;17.33;4.43;;;23.70;94.80;;;;;;5114555;28;20070;-83
2022/05/16 11:46:38;;;;;;;14.43;3.35;;;23.70;93.00;;;;;;5095667;28;20099;-83
2022/05/16 11:49:19;;;;;;;9.52;3.10;;;23.70;95.40;;;;;;5095759;28;20460;-83
2022/05/16 11:51:57;;;;;;;12.45;3.10;;;23.70;97.20;;;;;;5095749;28;20069;-84
2022/05/16 11:54:26;;;;;;;12.38;3.28;;;23.80;94.70;;;;;;5094556;28;20024;-83
2022/05/16 12:02:48;;;;;;;9.27;3.42;;;23.80;92.70;;;;;;5043161;28;20094;-84
2022/05/16 12:05:31;;;;;;;11.77;3.33;;;23.70;95.20;;;;;;5104280;28;20395;-83
2022/05/16 12:08:04;;;;;;;7.03;2.80;;;23.70;94.00;;;;;;5080503;28;20016;-84
2022/05/16 12:10:31;;;;;;;12.13;3.38;;;23.60;96.70;;;;;;5095059;28;20024;-84
2022/05/16 12:13:22;;;;;;;10.35;2.67;;;23.60;95.90;;;;;;5087022;28;20016;-83
2022/05/16 12:16:08;;;;;;;11.25;3.80;;;23.50;95.80;;;;;;5070781;28;20472;-84
2022/05/16 12:18:38;;;;;;;;;;;23.50;93.80;;;;;;5093073;28;20426;-83
2022/05/16 12:21:05;;;;;;;9.85;3.03;;;23.50;95.40;;;;;;5088155;28;19908;-83
2022/05/16 12:23:49;;;;;;;18.58;3.22;;;23.50;94.60;;;;;;5075874;28;20016;-84
2022/05/16 12:26:26;;;;;;;9.68;3.72;;;23.40;97.30;;;;;;5090083;28;20024;-89
2022/05/16 12:29:08;;;;;;;8.77;3.40;;;23.40;96.60;;;;;;5076392;28;20028;-83
2022/05/16 12:31:44;;;;;;;10.98;2.63;;;23.30;98.20;;;;;;5092241;28;20043;-82
2022/05/16 12:34:10;;;;;;;10.38;3.13;;;23.30;98.90;;;;;;5101418;28;20463;-81
2022/05/16 12:36:36;;;;;;;16.48;3.78;;;23.30;99.40;;;;;;5098285;28;20036;-81
2022/05/16 12:39:31;;;;;;;15.38;3.30;;;23.30;99.70;;;;;;5089887;28;20020;-81
2022/05/16 12:42:10;;;;;;;12.13;3.33;;;23.30;99.90;;;;;;5090581;28;20028;-81
2022/05/16 12:44:52;;;;;;;9.73;3.53;;;23.40;99.90;;;;;;5089529;28;20069;-81
2022/05/16 12:47:23;;;;;;;11.93;3.50;;;23.50;99.90;;;;;;5076137;28;20028;-87
2022/05/16 12:50:09;;;;;;;13.88;4.10;;;23.50;99.90;;;;;;5091180;28;20020;-87
2022/05/16 12:52:43;;;;;;;12.52;3.70;;;23.50;99.90;;;;;;5077153;28;20114;-87
2022/05/16 12:55:48;;;;;;;9.20;3.40;;;23.50;99.90;;;;;;5080282;28;20028;-87
2022/05/16 12:58:35;;;;;;;9.63;3.20;;;23.50;99.90;;;;;;5081758;28;20294;-87
2022/05/16 13:01:34;;;;;;;15.30;4.20;;;23.50;99.90;;;;;;5079290;28;20047;-87
2022/05/16 13:04:31;;;;;;;7.00;3.35;;;23.50;99.90;;;;;;5089642;28;20025;-87
2022/05/16 13:07:04;;;;;;;11.35;3.97;;;23.50;99.90;;;;;;5094060;28;20110;-87
2022/05/16 13:10:01;;;;;;;14.90;3.88;;;23.50;99.90;;;;;;5086070;28;20360;-87
2022/05/16 13:13:01;;;;;;;14.02;3.42;;;23.50;99.90;;;;;;5091279;28;20043;-88
2022/05/16 13:15:54;;;;;;;13.27;4.45;;;23.40;99.90;;;;;;5093365;28;20098;-88
2022/05/16 13:18:30;;;;;;;6.68;2.88;;;23.40;99.90;;;;;;5060579;28;20067;-87
2022/05/16 13:21:01;;;;;;;13.45;3.08;;;23.40;99.90;;;;;;5089057;28;20061;-87
2022/05/16 13:23:32;;;;;;;13.30;4.05;;;23.30;99.90;;;;;;5086844;28;20511;-87
2022/05/16 13:32:16;;;;;;;17.60;4.70;;;23.30;99.90;;;;;;5083058;28;20031;-87
2022/05/16 13:34:52;;;;;;;14.00;4.43;;;23.30;99.90;;;;;;5071729;28;20046;-87
2022/05/16 13:37:21;;;;;;;7.25;3.88;;;23.20;99.90;;;;;;5074932;28;20119;-87
2022/05/16 13:40:06;;;;;;;18.65;4.68;;;23.20;99.90;;;;;;5094736;28;20055;-86
2022/05/16 13:42:37;;;;;;;13.27;4.38;;;23.20;99.90;;;;;;5090066;28;20063;-86
2022/05/16 13:45:05;;;;;;;17.98;4.13;;;23.10;99.90;;;;;;5093368;28;20023;-87
2022/05/16 13:47:40;;;;;;;8.52;3.20;;;23.00;99.90;;;;;;5086915;28;20078;-87
2022/05/16 13:50:32;;;;;;;17.52;4.88;;;22.80;99.90;;;;;;5092224;28;20031;-87
2022/05/16 13:52:57;;;;;;;17.80;5.03;;;22.70;99.90;;;;;;5055097;28;20028;-87